createdAt,value
2018-12-30T00:03:12.916Z,97881.80
2018-12-30T00:13:16.532Z,97883.55
2018-12-30T00:19:14.452Z,97882.16
2018-12-30T00:35:19.582Z,97891.56
2018-12-30T00:41:05.187Z,97911.67
2018-12-30T00:43:34.325Z,97925.94
2018-12-30T00:55:20.992Z,97944.07
2018-12-30T01:05:22.051Z,97939.35
2018-12-30T01:17:34.728Z,97951.63
2018-12-30T01:27:10.318Z,97971.99
2018-12-30T01:29:39.425Z,97982.58
2018-12-30T01:32:08.561Z,97980.87
2018-12-30T01:34:37.687Z,97980.76
2018-12-30T01:40:50.219Z,97989.91
2018-12-30T01:49:39.553Z,98003.61
2018-12-30T02:05:59.352Z,98025.17
2018-12-30T02:08:28.465Z,98033.47
2018-12-30T02:24:16.283Z,98054.50
2018-12-30T02:30:13.722Z,98056.48
2018-12-30T02:40:26.607Z,98062.67
2018-12-30T02:45:48.366Z,98057.64
2018-12-30T02:52:39.250Z,98070.08
2018-12-30T02:55:08.398Z,98073.37
2018-12-30T02:57:37.496Z,98064.52
2018-12-30T03:07:55.674Z,98093.47
2018-12-30T03:21:05.308Z,98084.85
2018-12-30T03:27:01.958Z,98092.83
2018-12-30T03:29:31.076Z,98093.56
2018-12-30T03:32:00.208Z,98094.42
2018-12-30T03:34:29.330Z,98103.42
2018-12-30T03:37:10.719Z,98094.03
2018-12-30T03:39:39.834Z,98093.97
2018-12-30T03:42:08.944Z,98096.58
2018-12-30T03:44:38.086Z,98102.83
2018-12-30T03:54:19.054Z,98097.96
2018-12-30T03:56:48.200Z,98099.27
2018-12-30T03:59:17.351Z,98102.98
2018-12-30T04:08:42.358Z,98106.53
2018-12-30T04:11:11.475Z,98114.76
2018-12-30T04:13:40.586Z,98134.08
2018-12-30T04:19:37.685Z,98117.28
2018-12-30T04:25:34.860Z,98128.09
2018-12-30T04:31:44.033Z,98106.23
2018-12-30T04:34:57.498Z,98108.53
2018-12-30T04:37:26.625Z,98128.03
2018-12-30T04:39:55.725Z,98130.22
2018-12-30T04:42:24.848Z,98144.72
2018-12-30T04:48:26.747Z,98155.58
2018-12-30T04:50:55.868Z,98161.35
2018-12-30T04:57:04.777Z,98154.78
2018-12-30T05:13:36.885Z,98195.50
2018-12-30T05:16:35.889Z,98189.97
2018-12-30T05:19:04.991Z,98200.63
2018-12-30T05:21:34.117Z,98188.54
2018-12-30T05:24:03.255Z,98172.50
2018-12-30T05:36:55.270Z,98209.36
2018-12-30T05:39:24.403Z,98209.17
2018-12-30T05:42:14.125Z,98225.29
2018-12-30T05:50:40.650Z,98223.13
2018-12-30T06:03:54.487Z,98277.28
2018-12-30T06:06:23.581Z,98272.97
2018-12-30T06:08:52.697Z,98257.33
2018-12-30T06:11:22.409Z,98247.08
2018-12-30T06:13:51.533Z,98287.36
2018-12-30T06:16:20.643Z,98293.14
2018-12-30T06:18:55.852Z,98309.40
2018-12-30T06:21:24.980Z,98319.78
2018-12-30T06:23:54.142Z,98314.28
2018-12-30T06:41:00.628Z,98292.08
2018-12-30T06:43:29.743Z,98301.84
2018-12-30T06:45:58.860Z,98292.91
2018-12-30T06:55:22.851Z,98299.03
2018-12-30T06:57:51.953Z,98289.32
2018-12-30T07:03:49.190Z,98281.05
2018-12-30T07:06:45.317Z,98310.41
2018-12-30T07:12:42.059Z,98315.91
2018-12-30T07:18:38.664Z,98330.77
2018-12-30T07:21:07.807Z,98350.60
2018-12-30T07:23:36.941Z,98355.09
2018-12-30T07:26:06.049Z,98364.41
2018-12-30T07:28:47.221Z,98358.14
2018-12-30T07:31:16.366Z,98365.95
2018-12-30T07:33:45.458Z,98373.18
2018-12-30T07:39:42.614Z,98382.71
2018-12-30T07:42:11.715Z,98381.22
2018-12-30T07:44:40.850Z,98390.21
2018-12-30T07:47:09.965Z,98381.09
2018-12-30T07:53:42.669Z,98391.63
2018-12-30T07:56:11.810Z,98388.55
2018-12-30T07:58:40.910Z,98395.82
2018-12-30T08:01:10.047Z,98404.43
2018-12-30T08:03:39.141Z,98400.84
2018-12-30T08:06:08.267Z,98401.80
2018-12-30T08:08:37.373Z,98406.88
2018-12-30T08:14:34.758Z,98407.56
2018-12-30T08:17:03.880Z,98408.89
2018-12-30T08:19:32.982Z,98408.30
2018-12-30T08:35:52.970Z,98399.20
2018-12-30T08:38:22.148Z,98400.50
2018-12-30T08:41:21.103Z,98399.33
2018-12-30T08:43:50.208Z,98393.75
2018-12-30T08:49:24.885Z,98391.92
2018-12-30T08:51:54.034Z,98394.36
2018-12-30T08:54:23.187Z,98382.85
2018-12-30T09:00:20.207Z,98384.79
2018-12-30T09:02:49.333Z,98385.50
2018-12-30T09:05:18.423Z,98390.00
2018-12-30T09:07:47.553Z,98387.67
2018-12-30T09:10:16.669Z,98390.70
2018-12-30T09:13:39.340Z,98395.02
2018-12-30T09:19:36.020Z,98405.09
2018-12-30T09:22:05.160Z,98413.66
2018-12-30T09:31:30.179Z,98421.02
2018-12-30T09:33:59.379Z,98406.11
2018-12-30T09:36:28.498Z,98416.00
2018-12-30T09:43:01.126Z,98418.31
2018-12-30T09:45:30.261Z,98433.20
2018-12-30T09:47:59.415Z,98436.47
2018-12-30T09:57:36.654Z,98435.73
2018-12-30T10:00:06.001Z,98439.63
2018-12-30T10:02:35.140Z,98442.93
2018-12-30T10:05:04.281Z,98448.33
2018-12-30T10:07:50.879Z,98445.67
2018-12-30T10:10:20.001Z,98447.51
2018-12-30T10:19:44.906Z,98444.30
2018-12-30T10:22:14.022Z,98443.80
2018-12-30T10:24:43.143Z,98449.67
2018-12-30T10:27:12.248Z,98452.50
2018-12-30T10:29:41.375Z,98444.94
2018-12-30T10:32:10.485Z,98435.83
2018-12-30T10:34:39.597Z,98436.00
2018-12-30T10:41:30.210Z,98428.43
2018-12-30T10:43:59.362Z,98436.84
2018-12-30T10:46:28.478Z,98447.22
2018-12-30T10:48:57.565Z,98444.05
2018-12-30T10:51:26.718Z,98447.66
2018-12-30T10:54:00.618Z,98450.45
2018-12-30T10:56:26.659Z,98455.97
2018-12-30T10:58:57.663Z,98447.66
2018-12-30T11:01:56.409Z,98438.59
2018-12-30T11:04:25.511Z,98445.10
2018-12-30T11:13:49.645Z,98458.33
2018-12-30T11:23:14.093Z,98443.61
2018-12-30T11:25:43.222Z,98436.88
2018-12-30T11:28:36.090Z,98433.61
2018-12-30T11:31:05.210Z,98435.10
2018-12-30T11:33:34.351Z,98440.34
2018-12-30T11:36:03.514Z,98436.80
2018-12-30T11:38:32.667Z,98440.01
2018-12-30T11:44:29.549Z,98428.88
2018-12-30T11:58:30.997Z,98417.27
2018-12-30T12:01:00.093Z,98406.29
2018-12-30T12:03:29.253Z,98402.47
2018-12-30T12:05:58.431Z,98396.56
2018-12-30T12:08:27.553Z,98383.24
2018-12-30T12:10:56.659Z,98391.93
2018-12-30T12:13:25.781Z,98387.05
2018-12-30T12:15:54.876Z,98387.13
2018-12-30T12:18:23.995Z,98388.94
2018-12-30T12:20:53.093Z,98384.78
2018-12-30T12:23:22.211Z,98397.10
2018-12-30T12:25:51.304Z,98395.14
2018-12-30T12:28:20.434Z,98393.43
2018-12-30T12:30:49.534Z,98390.21
2018-12-30T12:33:18.694Z,98390.41
2018-12-30T12:35:47.799Z,98382.78
2018-12-30T12:38:16.943Z,98381.31
2018-12-30T12:40:46.048Z,98372.23
2018-12-30T12:43:15.191Z,98368.31
2018-12-30T12:45:44.285Z,98370.48
2018-12-30T12:51:10.355Z,98388.44
2018-12-30T12:53:39.515Z,98394.84
2018-12-30T12:56:08.607Z,98395.92
2018-12-30T12:58:37.765Z,98404.66
2018-12-30T13:01:06.858Z,98404.02
2018-12-30T13:16:28.276Z,98401.03
2018-12-30T13:18:57.393Z,98400.20
2018-12-30T13:21:26.495Z,98401.34
2018-12-30T13:23:55.633Z,98403.64
2018-12-30T13:26:24.737Z,98389.86
2018-12-30T13:28:53.837Z,98379.92
2018-12-30T13:31:22.959Z,98382.58
2018-12-30T13:33:52.841Z,98378.07
2018-12-30T13:36:22.525Z,98375.02
2018-12-30T13:38:51.679Z,98377.09
2018-12-30T13:41:20.793Z,98383.90
2018-12-30T13:43:49.921Z,98381.03
2018-12-30T13:46:19.044Z,98384.86
2018-12-30T13:48:48.215Z,98392.58
2018-12-30T13:51:17.290Z,98403.62
2018-12-30T13:53:46.413Z,98409.82
2018-12-30T13:56:15.536Z,98410.37
2018-12-30T14:02:12.191Z,98413.80
2018-12-30T14:04:41.323Z,98418.45
2018-12-30T14:07:10.425Z,98415.73
2018-12-30T14:09:39.523Z,98419.70
2018-12-30T14:12:08.643Z,98415.95
2018-12-30T14:14:37.762Z,98419.23
2018-12-30T14:17:39.620Z,98417.48
2018-12-30T14:20:09.014Z,98410.21
2018-12-30T14:22:38.130Z,98415.27
2018-12-30T14:25:07.279Z,98415.97
2018-12-30T14:27:36.378Z,98412.97
2018-12-30T14:30:06.474Z,98406.38
2018-12-30T14:32:35.586Z,98401.23
2018-12-30T14:35:04.725Z,98411.96
2018-12-30T14:37:33.822Z,98414.04
2018-12-30T14:49:34.269Z,98430.11
2018-12-30T14:52:03.391Z,98423.13
2018-12-30T14:54:32.496Z,98421.28
2018-12-30T14:57:01.651Z,98424.83
2018-12-30T15:02:19.650Z,98415.48
2018-12-30T15:04:48.813Z,98418.55
2018-12-30T15:07:17.930Z,98424.42
2018-12-30T15:09:47.055Z,98430.00
2018-12-30T15:12:16.161Z,98431.57
2018-12-30T15:14:45.295Z,98436.04
2018-12-30T15:21:06.476Z,98433.52
2018-12-30T15:35:04.559Z,98424.35
2018-12-30T15:37:33.688Z,98432.30
2018-12-30T15:40:02.789Z,98437.71
2018-12-30T15:42:31.912Z,98433.06
2018-12-30T15:45:01.024Z,98430.90
2018-12-30T15:53:37.073Z,98425.95
2018-12-30T15:56:06.189Z,98418.38
2018-12-30T15:58:35.296Z,98420.55
2018-12-30T16:10:35.896Z,98423.87
2018-12-30T16:13:04.988Z,98432.02
2018-12-30T16:15:34.097Z,98434.62
2018-12-30T16:18:03.224Z,98413.61
2018-12-30T16:20:32.326Z,98413.01
2018-12-30T16:37:45.834Z,98430.19
2018-12-30T16:40:14.994Z,98432.25
2018-12-30T16:42:44.088Z,98423.92
2018-12-30T16:45:13.210Z,98428.98
2018-12-30T17:00:49.030Z,98411.70
2018-12-30T17:03:18.142Z,98397.08
2018-12-30T17:05:47.234Z,98396.34
2018-12-30T17:08:16.365Z,98388.80
2018-12-30T17:10:45.476Z,98395.45
2018-12-30T17:13:14.580Z,98406.98
2018-12-30T17:15:43.722Z,98393.64
2018-12-30T17:18:12.818Z,98400.12
2018-12-30T17:20:42.065Z,98402.39
2018-12-30T17:23:11.123Z,98399.11
2018-12-30T17:25:43.221Z,98396.01
2018-12-30T17:31:38.627Z,98396.30
2018-12-30T17:34:07.727Z,98400.72
2018-12-30T17:36:36.849Z,98397.51
2018-12-30T17:49:04.418Z,98407.37
2018-12-30T17:51:33.569Z,98404.50
2018-12-30T17:54:02.692Z,98402.59
2018-12-30T17:56:31.833Z,98409.75
2018-12-30T17:59:00.923Z,98419.11
2018-12-30T18:01:30.053Z,98422.77
2018-12-30T18:03:59.152Z,98425.70
2018-12-30T18:06:28.283Z,98435.12
2018-12-30T18:08:57.392Z,98428.16
2018-12-30T18:11:26.516Z,98434.78
2018-12-30T18:13:55.626Z,98438.45
2018-12-30T18:16:24.756Z,98423.77
2018-12-30T18:18:53.865Z,98427.61
2018-12-30T18:21:22.985Z,98430.59
2018-12-30T18:23:51.861Z,98423.00
2018-12-30T18:26:20.998Z,98421.49
2018-12-30T18:28:50.110Z,98423.44
2018-12-30T18:31:19.233Z,98426.88
2018-12-30T18:33:48.339Z,98420.56
2018-12-30T18:36:17.474Z,98426.22
2018-12-30T18:38:46.583Z,98423.89
2018-12-30T18:41:15.730Z,98426.77
2018-12-30T18:43:44.886Z,98427.27
2018-12-30T18:46:13.970Z,98420.41
2018-12-30T18:48:43.124Z,98419.62
2018-12-30T18:58:07.936Z,98406.78
2018-12-30T19:00:37.042Z,98415.41
2018-12-30T19:03:06.187Z,98406.78
2018-12-30T19:12:31.715Z,98415.91
2018-12-30T19:15:00.839Z,98412.70
2018-12-30T19:17:29.973Z,98408.04
2018-12-30T19:19:59.089Z,98411.09
2018-12-30T19:22:28.215Z,98401.79
2018-12-30T19:24:57.324Z,98407.88
2018-12-30T19:27:26.480Z,98409.81
2018-12-30T19:29:55.602Z,98411.47
2018-12-30T19:32:24.722Z,98408.76
2018-12-30T19:34:53.858Z,98405.49
2018-12-30T19:37:22.977Z,98408.81
2018-12-30T19:39:52.110Z,98408.44
2018-12-30T19:42:21.224Z,98411.97
2018-12-30T19:44:50.351Z,98413.63
2018-12-30T19:47:19.481Z,98418.73
2018-12-30T19:49:48.640Z,98418.44
2018-12-30T19:52:17.825Z,98408.48
2018-12-30T19:54:46.966Z,98413.80
2018-12-30T19:57:16.082Z,98405.16
2018-12-30T19:59:45.200Z,98408.09
2018-12-30T20:02:14.314Z,98402.49
2018-12-30T20:04:44.325Z,98397.98
2018-12-30T20:07:13.444Z,98398.67
2018-12-30T20:09:42.561Z,98393.03
2018-12-30T20:13:08.742Z,98390.44
2018-12-30T20:19:01.132Z,98387.72
2018-12-30T20:21:30.251Z,98386.55
2018-12-30T20:23:59.383Z,98375.16
2018-12-30T20:26:30.083Z,98377.20
2018-12-30T20:28:59.310Z,98382.84
2018-12-30T20:31:28.440Z,98374.20
2018-12-30T20:33:57.571Z,98376.49
2018-12-30T20:36:26.682Z,98376.49
2018-12-30T20:38:55.818Z,98369.83
2018-12-30T20:41:24.930Z,98369.89
2018-12-30T20:43:54.065Z,98366.78
2018-12-30T20:46:23.188Z,98359.55
2018-12-30T20:48:52.348Z,98361.75
2018-12-30T20:51:21.460Z,98363.08
2018-12-30T20:53:50.595Z,98368.52
2018-12-30T20:56:19.711Z,98362.14
2018-12-30T20:58:48.827Z,98361.47
2018-12-30T21:01:17.966Z,98365.84
2018-12-30T21:03:47.093Z,98365.69
2018-12-30T21:06:16.393Z,98361.20
2018-12-30T21:08:45.837Z,98356.53
2018-12-30T21:21:37.982Z,98366.78
2018-12-30T21:24:07.330Z,98368.50
2018-12-30T21:26:36.618Z,98369.33
2018-12-30T21:42:56.883Z,98370.87
2018-12-30T21:45:26.020Z,98366.66
2018-12-30T21:47:55.132Z,98369.84
2018-12-30T21:50:24.298Z,98355.83
2018-12-30T21:52:53.408Z,98355.23
2018-12-30T21:55:22.534Z,98352.22
2018-12-30T21:57:51.644Z,98354.45
2018-12-30T22:00:20.792Z,98363.86
2018-12-30T22:02:49.914Z,98365.86
2018-12-30T22:05:19.055Z,98364.86
2018-12-30T22:07:48.164Z,98359.77
2018-12-30T22:10:17.694Z,98358.81
2018-12-30T22:12:46.799Z,98363.80
2018-12-30T22:15:15.929Z,98372.78
2018-12-30T22:17:45.045Z,98369.50
2018-12-30T22:20:14.178Z,98369.00
2018-12-30T22:22:43.286Z,98368.12
2018-12-30T22:25:12.412Z,98364.13
2018-12-30T22:27:41.530Z,98361.47
2018-12-30T22:30:10.670Z,98362.47
2018-12-30T22:36:19.609Z,98365.84
2018-12-30T22:38:48.713Z,98371.61
2018-12-30T22:41:17.854Z,98379.95
2018-12-30T22:43:46.978Z,98373.98
2018-12-30T22:53:06.293Z,98372.16
2018-12-30T22:55:35.428Z,98358.36
2018-12-30T22:58:04.547Z,98354.40
2018-12-30T23:00:51.095Z,98351.89
2018-12-30T23:03:20.270Z,98352.34
2018-12-30T23:05:49.409Z,98364.58
2018-12-30T23:08:18.508Z,98361.35
2018-12-30T23:10:52.287Z,98358.14
2018-12-30T23:20:29.360Z,98365.73
2018-12-30T23:22:58.494Z,98359.09
2018-12-30T23:25:27.604Z,98360.74
2018-12-30T23:27:56.727Z,98357.58
2018-12-30T23:30:25.836Z,98356.10
2018-12-30T23:36:22.362Z,98345.67
2018-12-30T23:38:51.528Z,98341.46
2018-12-30T23:44:48.402Z,98346.13
2018-12-30T23:47:17.538Z,98341.98
2018-12-30T23:49:46.671Z,98343.00
2018-12-30T23:52:15.803Z,98345.23
2018-12-30T23:54:44.908Z,98346.99
2018-12-30T23:57:14.048Z,98342.25
2018-12-30T23:59:43.158Z,98352.04
